Time;durP1;ratioP1;P1;durP2;ratioP2;P2;SDS_P1;SDS_P2;PMS_P1;PMS_P2;Temp;Humidity;BMP_temperature;BMP_pressure;BME280_temperature;BME280_humidity;BME280_pressure;Samples;Min_cycle;Max_cycle;Signal;HPM_P1;HPM_P2
2022/07/05 00:02:08;;;;;;;;;;;21.60;76.30;;;;;;5033135;28;20131;-57
2022/07/05 00:04:52;;;;;;;;;;;21.50;76.40;;;;;;5030392;28;20384;-53
2022/07/05 00:07:36;;;;;;;;;;;21.50;77.10;;;;;;5024180;28;20008;-55
2022/07/05 00:10:21;;;;;;;;;;;21.50;77.10;;;;;;5029238;28;20022;-56
2022/07/05 00:13:05;;;;;;;;;;;21.50;76.60;;;;;;5029949;28;19936;-55
2022/07/05 00:15:52;;;;;;;;;;;21.40;76.90;;;;;;5032019;28;19931;-52
2022/07/05 00:18:36;;;;;;;;;;;21.30;77.50;;;;;;5029910;28;19917;-54
2022/07/05 00:21:20;;;;;;;;;;;21.30;77.70;;;;;;5032255;28;19912;-52
2022/07/05 00:24:04;;;;;;;;;;;21.30;77.70;;;;;;5025300;28;19915;-55
2022/07/05 00:26:48;;;;;;;;;;;21.40;78.00;;;;;;5026257;28;19920;-53
2022/07/05 00:29:32;;;;;;;;;;;21.50;77.90;;;;;;5025672;28;19920;-52
2022/07/05 00:32:17;;;;;;;;;;;21.50;77.50;;;;;;5031664;28;19972;-51
2022/07/05 00:35:01;;;;;;;;;;;21.30;77.90;;;;;;5031196;28;20473;-50
2022/07/05 00:37:45;;;;;;;;;;;21.20;78.40;;;;;;5030418;28;20485;-51
2022/07/05 00:40:30;;;;;;;;;;;21.00;79.30;;;;;;5029271;28;19924;-52
2022/07/05 00:43:14;;;;;;;;;;;20.90;80.00;;;;;;5031736;28;19932;-51
2022/07/05 00:45:58;;;;;;;;;;;20.70;80.80;;;;;;5031818;28;19963;-51
2022/07/05 00:48:43;;;;;;;;;;;20.60;82.00;;;;;;5031154;28;19956;-48
2022/07/05 00:51:32;;;;;;;;;;;20.70;82.10;;;;;;5025361;28;20004;-52
2022/07/05 00:54:16;;;;;;;;;;;20.70;82.20;;;;;;5016561;28;20024;-50
2022/07/05 00:57:01;;;;;;;;;;;20.60;79.70;;;;;;5025994;28;19920;-49
2022/07/05 00:59:45;;;;;;;;;;;20.50;81.90;;;;;;5028758;28;20032;-54
2022/07/05 01:02:29;;;;;;;;;;;20.50;83.10;;;;;;5025514;28;20210;-49
2022/07/05 01:05:13;;;;;;;;;;;20.50;83.40;;;;;;5035816;28;20012;-53
2022/07/05 01:07:59;;;;;;;;;;;20.50;83.90;;;;;;5035758;28;19913;-51
2022/07/05 01:10:44;;;;;;;;;;;20.50;84.00;;;;;;5034735;28;19936;-49
2022/07/05 01:13:29;;;;;;;;;;;20.60;84.40;;;;;;5034570;28;19921;-52
2022/07/05 01:16:13;;;;;;;;;;;20.60;84.60;;;;;;5033861;28;19924;-50
2022/07/05 01:18:57;;;;;;;;;;;20.70;84.70;;;;;;5034605;28;19972;-52
2022/07/05 01:21:43;;;;;;;;;;;20.60;84.30;;;;;;5034938;28;20226;-48
2022/07/05 01:24:27;;;;;;;;;;;20.50;84.30;;;;;;5036047;28;19936;-52
2022/07/05 01:27:11;;;;;;;;;;;20.50;82.30;;;;;;5036070;28;19960;-50
2022/07/05 01:29:56;;;;;;;;;;;20.40;81.70;;;;;;5031879;28;19919;-48
2022/07/05 01:32:40;;;;;;;;;;;20.30;81.20;;;;;;5032667;28;20383;-49
2022/07/05 01:35:24;;;;;;;;;;;19.90;80.10;;;;;;5032993;28;20328;-52
2022/07/05 01:38:10;;;;;;;;;;;19.70;78.10;;;;;;5034429;28;20284;-51
2022/07/05 01:40:54;;;;;;;;;;;19.40;78.80;;;;;;5035055;28;20375;-52
2022/07/05 01:43:39;;;;;;;;;;;19.20;79.30;;;;;;5023784;28;19967;-50
2022/07/05 01:46:23;;;;;;;;;;;19.20;79.30;;;;;;5035569;28;19968;-47
2022/07/05 01:49:12;;;;;;;;;;;19.20;79.90;;;;;;5035640;28;19959;-49
2022/07/05 01:51:58;;;;;;;;;;;19.10;79.60;;;;;;5035327;28;19920;-49
2022/07/05 01:54:43;;;;;;;;;;;19.10;80.00;;;;;;5021060;28;20147;-53
2022/07/05 01:57:27;;;;;;;;;;;19.20;79.60;;;;;;5040047;28;19962;-57
2022/07/05 02:00:11;;;;;;;;;;;19.10;78.70;;;;;;5041419;28;20380;-54
2022/07/05 02:02:56;;;;;;;;;;;18.90;78.80;;;;;;5042019;28;19984;-56
2022/07/05 02:05:41;;;;;;;;;;;18.90;78.80;;;;;;5027635;28;19941;-52
2022/07/05 02:08:29;;;;;;;;;;;18.80;79.50;;;;;;5042790;28;19924;-53
2022/07/05 02:11:13;;;;;;;;;;;18.80;79.00;;;;;;5035930;28;20391;-51
2022/07/05 02:13:57;;;;;;;;;;;18.50;80.00;;;;;;5035466;28;20270;-51
2022/07/05 02:16:41;;;;;;;;;;;18.40;80.10;;;;;;5036164;28;19916;-53
2022/07/05 02:19:25;;;;;;;;;;;18.30;80.60;;;;;;5019949;28;19970;-55
2022/07/05 02:22:10;;;;;;;;;;;18.10;81.70;;;;;;5035053;28;19958;-52
2022/07/05 02:24:54;;;;;;;;;;;18.10;81.40;;;;;;5016061;28;20326;-52
2022/07/05 02:27:38;;;;;;;;;;;18.30;80.90;;;;;;5018990;28;19917;-51
2022/07/05 02:30:22;;;;;;;;;;;18.20;80.70;;;;;;5035380;28;19931;-53
2022/07/05 02:33:06;;;;;;;;;;;18.20;81.10;;;;;;5035027;28;19963;-55
2022/07/05 02:35:51;;;;;;;;;;;18.10;81.40;;;;;;5029515;28;20423;-51
2022/07/05 02:38:35;;;;;;;;;;;17.90;81.50;;;;;;5030333;28;19924;-48
2022/07/05 02:41:20;;;;;;;;;;;17.80;81.80;;;;;;5034358;28;19915;-48
2022/07/05 02:44:04;;;;;;;;;;;17.60;82.50;;;;;;5022574;28;19920;-50
2022/07/05 02:46:48;;;;;;;;;;;17.60;82.60;;;;;;5019525;28;19941;-51
2022/07/05 02:49:32;;;;;;;;;;;17.60;82.40;;;;;;5034643;28;20460;-50
2022/07/05 02:52:16;;;;;;;;;;;17.30;83.60;;;;;;5034942;28;19916;-49
2022/07/05 02:55:01;;;;;;;;;;;17.50;83.00;;;;;;5034100;28;19920;-55
2022/07/05 02:57:45;;;;;;;;;;;17.40;83.70;;;;;;5033522;28;19924;-50
2022/07/05 03:00:29;;;;;;;;;;;17.30;84.20;;;;;;5015120;28;19920;-48
2022/07/05 03:03:15;;;;;;;;;;;17.30;83.90;;;;;;5023819;28;19932;-51
2022/07/05 03:05:59;;;;;;;;;;;17.30;83.70;;;;;;5033816;28;20326;-52
2022/07/05 03:08:44;;;;;;;;;;;17.20;84.10;;;;;;5031096;28;19927;-48
2022/07/05 03:11:28;;;;;;;;;;;17.20;84.50;;;;;;5029719;28;19916;-50
2022/07/05 03:14:12;;;;;;;;;;;17.20;84.70;;;;;;5023967;28;20000;-49
2022/07/05 03:16:56;;;;;;;;;;;17.20;84.80;;;;;;5020056;28;20335;-54
2022/07/05 03:19:41;;;;;;;;;;;17.30;84.90;;;;;;5042259;28;19959;-53
2022/07/05 03:22:25;;;;;;;;;;;17.30;84.80;;;;;;5043387;28;19920;-53
2022/07/05 03:25:09;;;;;;;;;;;17.50;84.50;;;;;;5044081;28;20206;-54
2022/07/05 03:27:53;;;;;;;;;;;17.40;84.80;;;;;;5044814;28;19920;-56
2022/07/05 03:30:38;;;;;;;;;;;17.60;84.90;;;;;;5038543;28;20272;-52
2022/07/05 03:33:22;;;;;;;;;;;17.80;84.10;;;;;;5032582;28;19920;-52
2022/07/05 03:36:06;;;;;;;;;;;17.90;84.20;;;;;;5031055;28;19920;-52
2022/07/05 03:38:50;;;;;;;;;;;18.00;83.70;;;;;;5032764;28;19923;-52
2022/07/05 03:41:34;;;;;;;;;;;18.10;83.80;;;;;;5030223;28;19920;-51
2022/07/05 03:44:19;;;;;;;;;;;18.10;84.00;;;;;;5032745;28;19920;-47
2022/07/05 03:47:03;;;;;;;;;;;18.10;84.10;;;;;;5033348;28;20002;-49
2022/07/05 03:49:47;;;;;;;;;;;18.10;84.10;;;;;;5034157;28;20388;-51
2022/07/05 03:52:31;;;;;;;;;;;18.00;84.90;;;;;;5034311;28;20067;-51
2022/07/05 03:55:16;;;;;;;;;;;17.90;85.40;;;;;;5018436;28;19920;-52
2022/07/05 03:58:00;;;;;;;;;;;17.90;85.30;;;;;;5032528;28;19924;-52
2022/07/05 04:00:44;;;;;;;;;;;18.00;85.80;;;;;;5034965;28;19955;-53
2022/07/05 04:03:28;;;;;;;;;;;18.00;86.00;;;;;;5033269;28;19963;-48
2022/07/05 04:06:12;;;;;;;;;;;17.90;86.50;;;;;;5032330;28;19960;-55
2022/07/05 04:08:57;;;;;;;;;;;17.80;87.50;;;;;;5031930;28;19998;-51
2022/07/05 04:11:41;;;;;;;;;;;17.70;87.70;;;;;;5035036;28;19916;-54
2022/07/05 04:14:25;;;;;;;;;;;17.70;88.20;;;;;;5018258;28;19943;-48
2022/07/05 04:17:10;;;;;;;;;;;17.50;89.50;;;;;;5012576;28;20395;-49
2022/07/05 04:19:54;;;;;;;;;;;17.30;90.20;;;;;;5012891;28;19956;-52
2022/07/05 04:22:38;;;;;;;;;;;17.60;89.80;;;;;;5029176;28;19916;-48
2022/07/05 04:25:23;;;;;;;;;;;17.80;89.40;;;;;;5023670;28;20008;-50
2022/07/05 04:28:07;;;;;;;;;;;17.80;89.10;;;;;;5030153;28;20268;-50
2022/07/05 04:30:51;;;;;;;;;;;17.90;89.30;;;;;;5033460;28;19912;-54
2022/07/05 04:33:38;;;;;;;;;;;17.90;89.50;;;;;;5021230;28;19935;-51
2022/07/05 04:36:22;;;;;;;;;;;17.80;90.00;;;;;;5036315;28;20035;-52
2022/07/05 04:39:07;;;;;;;;;;;17.80;90.00;;;;;;5035661;28;19939;-53
2022/07/05 04:41:51;;;;;;;;;;;17.70;90.30;;;;;;5033970;28;19916;-53
2022/07/05 04:44:35;;;;;;;;;;;17.70;90.40;;;;;;5039073;28;20380;-53
2022/07/05 04:47:19;;;;;;;;;;;17.90;90.40;;;;;;5032129;28;19924;-53
2022/07/05 04:50:04;;;;;;;;;;;17.90;90.50;;;;;;5033571;28;19930;-52
2022/07/05 04:52:48;;;;;;;;;;;18.00;90.30;;;;;;5040833;28;19920;-51
2022/07/05 04:55:33;;;;;;;;;;;18.00;90.30;;;;;;5036052;28;19916;-53
2022/07/05 04:58:17;;;;;;;;;;;18.10;90.20;;;;;;5035917;28;20004;-52
2022/07/05 05:01:01;;;;;;;;;;;18.20;90.40;;;;;;5036426;28;19915;-52
2022/07/05 05:03:45;;;;;;;;;;;18.20;90.40;;;;;;5036882;28;19951;-53
2022/07/05 05:06:29;;;;;;;;;;;18.20;90.30;;;;;;5033180;28;19959;-55
2022/07/05 05:09:13;;;;;;;;;;;18.30;90.30;;;;;;5035443;28;19916;-53
2022/07/05 05:11:58;;;;;;;;;;;18.40;90.00;;;;;;5035393;28;20276;-52
2022/07/05 05:14:42;;;;;;;;;;;18.40;90.00;;;;;;5035639;28;19978;-53
2022/07/05 05:17:33;;;;;;;;;;;18.40;90.20;;;;;;5035289;28;19924;-53
2022/07/05 05:20:18;;;;;;;;;;;18.50;90.10;;;;;;5035769;28;19959;-53
2022/07/05 05:23:02;;;;;;;;;;;18.70;90.10;;;;;;5016001;28;19959;-52
2022/07/05 05:25:47;;;;;;;;;;;18.70;89.80;;;;;;5023172;28;19959;-54
2022/07/05 05:28:32;;;;;;;;;;;18.80;89.10;;;;;;5035695;28;19912;-55
2022/07/05 05:31:17;;;;;;;;;;;18.70;89.20;;;;;;5035447;28;20023;-52
2022/07/05 05:34:01;;;;;;;;;;;18.80;88.70;;;;;;5035872;28;20296;-56
2022/07/05 05:36:46;;;;;;;;;;;18.70;87.70;;;;;;5035875;28;19978;-53
2022/07/05 05:39:30;;;;;;;;;;;18.60;87.60;;;;;;5020204;28;19932;-54
2022/07/05 05:42:14;;;;;;;;;;;18.60;87.50;;;;;;5020486;28;19939;-54
2022/07/05 05:44:59;;;;;;;;;;;18.80;87.00;;;;;;5043618;28;20344;-54
2022/07/05 05:47:44;;;;;;;;;;;18.90;86.30;;;;;;5019586;28;19935;-53
2022/07/05 05:50:29;;;;;;;;;;;19.00;85.00;;;;;;5035306;28;20027;-59
2022/07/05 05:53:13;;;;;;;;;;;19.20;83.80;;;;;;5034221;28;20292;-57
2022/07/05 05:55:57;;;;;;;;;;;19.00;83.20;;;;;;5033391;28;19970;-54
2022/07/05 05:58:41;;;;;;;;;;;19.00;83.20;;;;;;5033884;28;19935;-56
2022/07/05 06:01:26;;;;;;;;;;;19.00;83.20;;;;;;5019119;28;19959;-56
2022/07/05 06:04:10;;;;;;;;;;;18.90;83.20;;;;;;5033622;28;19967;-55
2022/07/05 06:06:54;;;;;;;;;;;19.00;83.00;;;;;;5034679;28;19966;-52
2022/07/05 06:09:38;;;;;;;;;;;19.00;83.00;;;;;;5034164;28;19920;-52
2022/07/05 06:12:22;;;;;;;;;;;19.10;83.40;;;;;;5038852;28;20436;-56
2022/07/05 06:15:07;;;;;;;;;;;19.20;82.70;;;;;;5034585;28;19915;-51
2022/07/05 06:17:51;;;;;;;;;;;19.20;82.60;;;;;;5027832;28;20387;-51
2022/07/05 06:20:36;;;;;;;;;;;19.40;82.70;;;;;;5024271;28;20273;-53
2022/07/05 06:23:21;;;;;;;;;;;19.70;81.70;;;;;;5028409;28;19939;-56
2022/07/05 06:26:05;;;;;;;;;;;20.00;81.90;;;;;;5027728;28;19954;-56
2022/07/05 06:28:49;;;;;;;;;;;20.20;80.30;;;;;;5034181;28;20391;-55
2022/07/05 06:31:33;;;;;;;;;;;19.80;80.90;;;;;;5033406;28;19920;-54
2022/07/05 06:34:17;;;;;;;;;;;19.80;81.50;;;;;;5029075;28;20000;-56
2022/07/05 06:37:02;;;;;;;;;;;19.90;81.00;;;;;;5017575;28;19923;-55
2022/07/05 06:39:46;;;;;;;;;;;20.00;81.10;;;;;;5014142;28;19924;-55
2022/07/05 06:42:30;;;;;;;;;;;20.10;81.10;;;;;;5015719;28;19924;-56
2022/07/05 06:45:15;;;;;;;;;;;19.90;80.90;;;;;;5014553;28;19921;-51
2022/07/05 06:48:01;;;;;;;;;;;20.00;80.80;;;;;;5018503;28;19971;-57
2022/07/05 06:50:45;;;;;;;;;;;20.20;80.60;;;;;;5034516;28;20325;-54
2022/07/05 06:53:30;;;;;;;;;;;20.30;80.60;;;;;;5034035;28;19966;-55
2022/07/05 06:56:14;;;;;;;;;;;20.50;80.50;;;;;;5033705;28;19919;-55
2022/07/05 06:58:58;;;;;;;;;;;20.60;80.10;;;;;;5034273;28;20378;-51
2022/07/05 07:01:42;;;;;;;;;;;20.90;80.30;;;;;;5032938;28;19916;-54
2022/07/05 07:04:26;;;;;;;;;;;21.10;79.10;;;;;;5026451;28;19958;-57
2022/07/05 07:10:18;;;;;;;;;;;21.40;78.10;;;;;;4985856;28;19921;-53
2022/07/05 07:13:03;;;;;;;;;;;21.40;77.30;;;;;;5013145;28;20391;-55
2022/07/05 07:15:48;;;;;;;;;;;21.40;77.30;;;;;;5025358;28;19963;-55
2022/07/05 07:18:32;;;;;;;;;;;21.50;77.80;;;;;;5029470;28;19932;-56
2022/07/05 07:21:16;;;;;;;;;;;21.70;77.60;;;;;;5021918;28;21352;-55
2022/07/05 07:24:01;;;;;;;;;;;21.90;77.10;;;;;;5036050;28;19970;-53
2022/07/05 07:27:03;;;;;;;;;;;21.90;76.50;;;;;;5026565;28;19933;-53
2022/07/05 07:29:47;;;;;;;;;;;22.00;75.80;;;;;;5029891;28;19915;-53
2022/07/05 07:32:31;;;;;;;;;;;21.90;76.50;;;;;;5013258;28;19956;-57
2022/07/05 07:35:16;;;;;;;;;;;21.90;76.10;;;;;;5032701;28;19916;-56
2022/07/05 07:38:00;;;;;;;;;;;22.00;76.30;;;;;;5031147;28;19971;-56
2022/07/05 07:40:44;;;;;;;;;;;21.80;75.80;;;;;;5030217;28;19920;-56
2022/07/05 07:43:28;;;;;;;;;;;21.60;77.10;;;;;;5026737;28;19955;-56
2022/07/05 07:46:12;;;;;;;;;;;21.50;77.10;;;;;;5027248;28;19959;-55
2022/07/05 07:48:57;;;;;;;;;;;21.60;77.30;;;;;;5033020;28;19912;-59
2022/07/05 07:51:41;;;;;;;;;;;21.70;77.00;;;;;;5031524;28;19967;-54
2022/07/05 07:54:25;;;;;;;;;;;21.60;77.70;;;;;;5029713;28;19915;-52
2022/07/05 07:57:09;;;;;;;;;;;21.80;77.90;;;;;;5028198;28;20031;-53
2022/07/05 07:59:54;;;;;;;;;;;22.00;77.40;;;;;;5030409;28;20282;-53
2022/07/05 08:02:38;;;;;;;;;;;22.20;76.70;;;;;;5032332;28;19955;-58
2022/07/05 08:05:22;;;;;;;;;;;22.50;76.10;;;;;;5033015;28;20671;-52
2022/07/05 08:08:06;;;;;;;;;;;22.70;75.40;;;;;;5030643;28;19959;-52
2022/07/05 08:10:51;;;;;;;;;;;22.60;75.80;;;;;;5036589;28;19939;-54
2022/07/05 08:13:35;;;;;;;;;;;22.50;75.70;;;;;;5035788;28;20008;-52
2022/07/05 08:16:20;;;;;;;;;;;22.30;76.40;;;;;;5033007;28;19979;-52
2022/07/05 08:22:07;;;;;;;;;;;21.80;77.80;;;;;;5029529;28;19962;-52
2022/07/05 08:24:52;;;;;;;;;;;21.70;77.90;;;;;;5014802;28;19979;-52
2022/07/05 08:27:36;;;;;;;;;;;21.80;78.10;;;;;;5015491;28;19924;-52
2022/07/05 08:30:20;;;;;;;;;;;21.90;77.90;;;;;;5030468;28;20035;-52
2022/07/05 08:33:04;;;;;;;;;;;21.90;77.30;;;;;;5016132;28;19955;-55
2022/07/05 08:35:48;;;;;;;;;;;21.90;77.90;;;;;;5030962;28;20368;-52
2022/07/05 08:38:33;;;;;;;;;;;21.90;77.30;;;;;;5031279;28;19971;-54
2022/07/05 08:41:18;;;;;;;;;;;21.90;77.50;;;;;;5031685;28;19920;-54
2022/07/05 08:44:03;;;;;;;;;;;21.80;77.40;;;;;;5027035;28;19912;-51
2022/07/05 08:46:50;;;;;;;;;;;21.90;77.00;;;;;;5035299;28;19928;-53
2022/07/05 08:49:34;;;;;;;;;;;21.90;77.60;;;;;;5031285;28;19979;-52
2022/07/05 08:52:19;;;;;;;;;;;22.10;77.10;;;;;;5029191;28;19928;-55
2022/07/05 08:55:03;;;;;;;;;;;22.10;76.60;;;;;;5026419;28;20347;-54
2022/07/05 08:57:47;;;;;;;;;;;22.20;77.30;;;;;;5017829;28;19960;-54
2022/07/05 09:00:31;;;;;;;;;;;22.20;77.10;;;;;;5031439;28;20275;-56
2022/07/05 09:03:16;;;;;;;;;;;22.40;76.90;;;;;;5031570;28;20430;-51
2022/07/05 09:06:01;;;;;;;;;;;22.50;76.70;;;;;;5031784;28;19939;-55
2022/07/05 09:08:46;;;;;;;;;;;22.80;76.20;;;;;;5029483;28;20368;-53
2022/07/05 09:11:35;;;;;;;;;;;23.00;75.80;;;;;;5030393;28;19920;-52
2022/07/05 09:14:21;;;;;;;;;;;23.00;75.60;;;;;;5028935;28;19947;-55
2022/07/05 09:17:06;;;;;;;;;;;23.10;75.70;;;;;;5031630;28;20391;-55
2022/07/05 09:20:10;;;;;;;;;;;23.40;74.40;;;;;;5031993;28;19959;-55
2022/07/05 09:22:55;;;;;;;;;;;23.50;74.30;;;;;;5035272;28;19955;-54
2022/07/05 09:25:39;;;;;;;;;;;23.40;74.10;;;;;;5035128;28;19915;-54
2022/07/05 09:28:23;;;;;;;;;;;23.60;73.90;;;;;;5029664;28;20240;-50
2022/07/05 09:31:25;;;;;;;;;;;23.80;73.20;;;;;;5035221;28;19916;-50
2022/07/05 09:34:10;;;;;;;;;;;23.80;73.20;;;;;;5034504;28;19963;-54
2022/07/05 09:36:55;;;;;;;;;;;23.80;73.00;;;;;;5035318;28;20475;-52
2022/07/05 09:39:40;;;;;;;;;;;23.70;72.20;;;;;;5035777;28;19919;-50
2022/07/05 09:42:24;;;;;;;;;;;23.90;71.90;;;;;;5034974;28;19963;-52
2022/07/05 09:45:08;;;;;;;;;;;24.00;72.10;;;;;;5019133;28;19916;-56
2022/07/05 09:47:56;;;;;;;;;;;24.30;71.80;;;;;;5034014;28;19928;-54
2022/07/05 09:50:40;;;;;;;;;;;24.30;70.90;;;;;;5031345;28;19952;-54
2022/07/05 09:53:24;;;;;;;;;;;24.10;71.80;;;;;;5035602;28;20341;-55
2022/07/05 09:56:09;;;;;;;;;;;24.10;71.40;;;;;;5036276;28;19963;-54
2022/07/05 09:58:53;;;;;;;;;;;24.30;71.10;;;;;;5055170;28;19912;-54
2022/07/05 10:01:38;;;;;;;;;;;24.50;70.60;;;;;;5054775;28;19912;-54
2022/07/05 10:04:23;;;;;;;;;;;24.60;70.50;;;;;;5054775;28;19911;-56
2022/07/05 10:07:07;;;;;;;;;;;24.10;71.80;;;;;;5034652;28;19920;-54
2022/07/05 10:09:51;;;;;;;;;;;23.80;72.30;;;;;;5034613;28;20005;-54
2022/07/05 10:12:36;;;;;;;;;;;23.90;72.50;;;;;;5034862;28;19987;-58
2022/07/05 10:15:22;;;;;;;;;;;24.10;71.90;;;;;;5035963;28;19916;-50
2022/07/05 10:18:08;;;;;;;;;;;24.00;72.10;;;;;;5033257;28;19920;-58
2022/07/05 10:20:53;;;;;;;;;;;24.00;72.40;;;;;;5019660;28;19920;-55
2022/07/05 10:23:38;;;;;;;;;;;24.20;71.30;;;;;;5034440;28;20368;-52
2022/07/05 10:26:23;;;;;;;;;;;24.70;70.10;;;;;;5029214;28;19959;-54
2022/07/05 10:29:09;;;;;;;;;;;25.00;69.40;;;;;;5034465;28;19916;-52
2022/07/05 10:31:53;;;;;;;;;;;25.30;69.50;;;;;;5034068;28;19932;-51
2022/07/05 10:34:37;;;;;;;;;;;25.40;67.60;;;;;;5031895;28;19912;-55
2022/07/05 10:37:22;;;;;;;;;;;24.50;68.90;;;;;;5053652;28;19923;-52
2022/07/05 10:40:07;;;;;;;;;;;24.60;68.10;;;;;;5038253;28;20383;-57
2022/07/05 10:42:55;;;;;;;;;;;24.80;68.10;;;;;;5031665;28;19995;-54
2022/07/05 10:45:42;;;;;;;;;;;24.60;69.40;;;;;;5033847;28;19968;-55
2022/07/05 10:48:27;;;;;;;;;;;24.40;69.80;;;;;;5046140;28;19915;-53
2022/07/05 10:51:13;;;;;;;;;;;24.30;69.60;;;;;;5044115;28;20387;-57
2022/07/05 10:53:58;;;;;;;;;;;24.20;69.50;;;;;;5034332;28;19958;-57
2022/07/05 10:57:02;;;;;;;;;;;24.10;68.90;;;;;;5034438;28;19920;-56
2022/07/05 11:00:06;;;;;;;;;;;24.20;69.40;;;;;;5021229;28;19915;-54
2022/07/05 11:03:05;;;;;;;;;;;24.80;67.90;;;;;;5034165;28;19955;-51
2022/07/05 11:05:49;;;;;;;;;;;24.90;67.50;;;;;;5032994;28;19935;-52
2022/07/05 11:08:52;;;;;;;;;;;24.90;66.70;;;;;;5032635;28;19920;-53
2022/07/05 11:11:44;;;;;;;;;;;24.80;66.60;;;;;;5014062;28;20530;-54
2022/07/05 11:14:37;;;;;;;;;;;24.80;66.70;;;;;;5012640;28;20354;-56
2022/07/05 11:17:29;;;;;;;;;;;25.00;65.50;;;;;;5027164;28;19969;-55
2022/07/05 11:20:22;;;;;;;;;;;25.10;64.50;;;;;;5031829;28;20431;-54
2022/07/05 11:23:10;;;;;;;;;;;25.30;65.20;;;;;;5013764;28;19912;-50
2022/07/05 11:25:55;;;;;;;;;;;25.70;64.60;;;;;;5023588;28;20280;-50
2022/07/05 11:28:45;;;;;;;;;;;25.70;63.60;;;;;;5013041;28;20419;-49
2022/07/05 11:31:40;;;;;;;;;;;25.30;63.70;;;;;;5021812;28;19924;-50
2022/07/05 11:34:32;;;;;;;;;;;25.00;64.20;;;;;;5032590;28;20391;-52
2022/07/05 11:37:16;;;;;;;;;;;24.90;64.80;;;;;;5033359;28;19959;-50
2022/07/05 11:40:06;;;;;;;;;;;25.00;64.50;;;;;;5033788;28;20026;-50
2022/07/05 11:42:50;;;;;;;;;;;25.00;64.40;;;;;;5036192;28;20391;-51
2022/07/05 11:45:35;;;;;;;;;;;24.80;65.30;;;;;;5014966;28;19969;-49
2022/07/05 11:48:19;;;;;;;;;;;24.80;65.20;;;;;;5024885;28;19920;-46
2022/07/05 11:51:13;;;;;;;;;;;25.00;65.90;;;;;;5041919;28;19967;-47
2022/07/05 11:53:57;;;;;;;;;;;25.20;64.60;;;;;;5032391;28;20384;-52
2022/07/05 11:56:42;;;;;;;;;;;25.40;64.60;;;;;;5031784;28;19959;-51
2022/07/05 11:59:26;;;;;;;;;;;25.60;64.00;;;;;;5032464;28;19915;-47
2022/07/05 12:02:10;;;;;;;;;;;25.60;63.80;;;;;;5014297;28;19979;-49
2022/07/05 12:04:55;;;;;;;;;;;25.80;63.70;;;;;;5032317;28;19919;-46
2022/07/05 12:07:40;;;;;;;;;;;26.20;63.20;;;;;;5031810;28;19912;-53
2022/07/05 12:13:27;;;;;;;;;;;26.70;62.90;;;;;;5032151;28;19960;-53
2022/07/05 12:16:13;;;;;;;;;;;27.00;61.60;;;;;;5031914;28;19955;-48
2022/07/05 12:19:01;;;;;;;;;;;27.30;60.30;;;;;;5030447;28;19975;-52
2022/07/05 12:21:52;;;;;;;;;;;27.30;62.00;;;;;;5031847;28;19916;-50
2022/07/05 12:24:36;;;;;;;;;;;26.90;62.20;;;;;;5032860;28;19959;-52
2022/07/05 12:27:20;;;;;;;;;;;26.80;61.30;;;;;;5032167;28;20466;-53
2022/07/05 12:30:05;;;;;;;;;;;26.60;61.30;;;;;;5020361;28;19959;-52
2022/07/05 12:32:53;;;;;;;;;;;26.60;61.40;;;;;;5022795;28;20430;-51
2022/07/05 12:35:40;;;;;;;;;;;26.70;60.70;;;;;;5003522;28;19916;-53
2022/07/05 12:38:28;;;;;;;;;;;26.30;61.90;;;;;;5031378;28;19919;-50
2022/07/05 12:41:21;;;;;;;;;;;25.80;62.60;;;;;;5032551;28;20051;-48
2022/07/05 12:44:06;;;;;;;;;;;25.30;63.80;;;;;;5032068;28;19916;-56
2022/07/05 12:46:51;;;;;;;;;;;25.40;64.00;;;;;;5016511;28;20280;-54
2022/07/05 12:49:55;;;;;;;;;;;25.40;63.50;;;;;;5031876;28;19996;-51
2022/07/05 12:52:59;;;;;;;;;;;25.40;63.50;;;;;;5016071;28;19936;-47
2022/07/05 12:58:47;;;;;;;;;;;25.40;62.80;;;;;;5035293;28;19916;-52
2022/07/05 13:01:34;;;;;;;;;;;25.60;63.50;;;;;;5035286;28;19920;-52
2022/07/05 13:04:18;;;;;;;;;;;25.70;64.60;;;;;;5035411;28;20387;-51
2022/07/05 13:07:03;;;;;;;;;;;25.60;64.50;;;;;;5034530;28;19920;-51
2022/07/05 13:09:47;;;;;;;;;;;25.80;64.20;;;;;;5035310;28;19916;-51
2022/07/05 13:12:32;;;;;;;;;;;26.10;63.70;;;;;;5034952;28;19958;-54
2022/07/05 13:15:17;;;;;;;;;;;26.10;63.80;;;;;;5035011;28;19931;-52
2022/07/05 13:18:02;;;;;;;;;;;26.00;64.30;;;;;;5033474;28;19935;-50
2022/07/05 13:20:49;;;;;;;;;;;26.00;64.90;;;;;;5035782;28;19955;-52
2022/07/05 13:23:33;;;;;;;;;;;26.10;64.20;;;;;;5003228;28;19989;-53
2022/07/05 13:26:18;;;;;;;;;;;25.50;65.80;;;;;;5034947;28;20530;-53
2022/07/05 13:29:02;;;;;;;;;;;25.40;65.40;;;;;;5037022;28;19955;-50
2022/07/05 13:31:47;;;;;;;;;;;25.90;64.80;;;;;;5035150;28;19920;-51
2022/07/05 13:34:31;;;;;;;;;;;26.60;63.80;;;;;;5035470;28;19959;-51
2022/07/05 13:37:16;;;;;;;;;;;27.00;62.40;;;;;;5018756;28;19919;-56
2022/07/05 13:40:00;;;;;;;;;;;27.10;62.00;;;;;;5035845;28;19920;-51
2022/07/05 13:42:44;;;;;;;;;;;27.30;62.40;;;;;;5019573;28;20351;-52
2022/07/05 13:45:29;;;;;;;;;;;27.80;62.00;;;;;;5035294;28;19920;-52
2022/07/05 13:48:13;;;;;;;;;;;27.70;61.20;;;;;;5029308;28;19945;-53
2022/07/05 13:50:57;;;;;;;;;;;27.00;61.60;;;;;;5034539;28;19963;-52
2022/07/05 13:53:41;;;;;;;;;;;26.70;62.70;;;;;;5034806;28;19916;-55
2022/07/05 13:56:26;;;;;;;;;;;26.30;63.60;;;;;;5033991;28;19916;-53
2022/07/05 13:59:10;;;;;;;;;;;26.10;63.60;;;;;;5034075;28;19932;-50
2022/07/05 14:01:54;;;;;;;;;;;25.60;64.70;;;;;;5034520;28;19920;-54
2022/07/05 14:04:38;;;;;;;;;;;25.80;64.80;;;;;;5034258;28;19915;-51
2022/07/05 14:07:23;;;;;;;;;;;26.30;63.50;;;;;;5032999;28;19974;-54
2022/07/05 14:10:07;;;;;;;;;;;26.70;62.50;;;;;;5034488;28;20037;-53
2022/07/05 14:12:51;;;;;;;;;;;26.80;62.70;;;;;;5034735;28;19959;-52
2022/07/05 14:15:35;;;;;;;;;;;27.00;62.70;;;;;;5034011;28;19963;-54
2022/07/05 14:18:20;;;;;;;;;;;27.30;61.80;;;;;;5033494;28;19920;-55
2022/07/05 14:21:04;;;;;;;;;;;27.40;61.10;;;;;;5034675;28;20446;-56
2022/07/05 14:23:48;;;;;;;;;;;27.50;61.50;;;;;;5034723;28;19912;-56
2022/07/05 14:26:33;;;;;;;;;;;27.70;60.70;;;;;;5018509;28;19920;-56
2022/07/05 14:29:17;;;;;;;;;;;28.00;59.90;;;;;;5033458;28;19959;-53
2022/07/05 14:32:01;;;;;;;;;;;27.40;60.00;;;;;;5033792;28;19986;-53
2022/07/05 14:34:45;;;;;;;;;;;27.10;60.40;;;;;;5018921;28;20272;-55
2022/07/05 14:37:29;;;;;;;;;;;26.90;61.10;;;;;;5033477;28;19924;-53
2022/07/05 14:40:14;;;;;;;;;;;27.00;61.80;;;;;;5033412;28;19939;-56
2022/07/05 14:42:59;;;;;;;;;;;27.10;61.00;;;;;;5044751;28;19980;-55
2022/07/05 14:45:42;;;;;;;;;;;26.70;62.00;;;;;;5034099;28;19931;-56
2022/07/05 14:48:27;;;;;;;;;;;27.10;61.60;;;;;;5031386;28;20339;-52
2022/07/05 14:51:11;;;;;;;;;;;27.20;61.20;;;;;;5051321;28;19978;-53
2022/07/05 14:53:55;;;;;;;;;;;27.50;60.20;;;;;;5047440;28;19915;-56
2022/07/05 14:56:40;;;;;;;;;;;27.60;59.80;;;;;;5033127;28;19944;-52
2022/07/05 14:59:24;;;;;;;;;;;27.60;59.80;;;;;;5033574;28;19916;-53
2022/07/05 15:02:09;;;;;;;;;;;28.00;59.50;;;;;;5033437;28;20093;-51
2022/07/05 15:04:53;;;;;;;;;;;28.40;58.60;;;;;;5033516;28;19912;-53
2022/07/05 15:07:38;;;;;;;;;;;28.40;59.20;;;;;;5033525;28;19920;-52
2022/07/05 15:10:22;;;;;;;;;;;28.00;59.20;;;;;;5033275;28;19916;-54
2022/07/05 15:13:08;;;;;;;;;;;28.10;59.70;;;;;;5033780;28;19920;-53
2022/07/05 15:15:53;;;;;;;;;;;28.20;59.20;;;;;;5032905;28;19971;-55
2022/07/05 15:18:37;;;;;;;;;;;28.30;58.90;;;;;;5033732;28;20323;-53
2022/07/05 15:21:21;;;;;;;;;;;28.30;58.60;;;;;;5034648;28;19936;-53
2022/07/05 15:24:06;;;;;;;;;;;28.60;58.10;;;;;;5033446;28;19920;-51
2022/07/05 15:26:50;;;;;;;;;;;28.60;58.00;;;;;;5014847;28;19984;-53
2022/07/05 15:29:35;;;;;;;;;;;28.60;58.20;;;;;;5033783;28;20654;-55
2022/07/05 15:32:19;;;;;;;;;;;28.30;58.40;;;;;;5033292;28;20429;-52
2022/07/05 15:35:04;;;;;;;;;;;27.90;59.50;;;;;;5019102;28;20434;-51
2022/07/05 15:37:48;;;;;;;;;;;28.00;60.10;;;;;;5032800;28;19955;-50
2022/07/05 15:40:32;;;;;;;;;;;28.30;59.10;;;;;;5030707;28;19916;-52
2022/07/05 15:43:18;;;;;;;;;;;28.20;59.40;;;;;;5026479;28;19919;-56
2022/07/05 15:46:02;;;;;;;;;;;28.20;59.40;;;;;;5031573;28;19920;-54
2022/07/05 15:48:48;;;;;;;;;;;28.60;59.00;;;;;;5032392;28;20432;-55
2022/07/05 15:51:32;;;;;;;;;;;28.40;60.00;;;;;;5017383;28;19912;-57
2022/07/05 15:54:17;;;;;;;;;;;28.80;59.00;;;;;;5032936;28;19920;-53
2022/07/05 15:57:01;;;;;;;;;;;28.90;58.40;;;;;;5031202;28;19971;-57
2022/07/05 15:59:45;;;;;;;;;;;29.20;58.00;;;;;;5031954;28;19963;-56
2022/07/05 16:02:29;;;;;;;;;;;29.10;57.90;;;;;;5029920;28;19972;-48
2022/07/05 16:05:13;;;;;;;;;;;28.80;57.90;;;;;;5030948;28;19999;-49
2022/07/05 16:07:58;;;;;;;;;;;28.60;57.60;;;;;;5028957;28;19916;-51
2022/07/05 16:10:43;;;;;;;;;;;28.10;58.70;;;;;;5025975;28;19928;-47
2022/07/05 16:13:27;;;;;;;;;;;28.20;58.50;;;;;;5031396;28;20001;-58